sensor_id;sensor_type;location;lat;lon;timestamp;temperature;humidity
25512;DHT22;13414;44.534;18.700;2024-02-28T00:00:37;9.30;99.90
25512;DHT22;13414;44.534;18.700;2024-02-28T00:03:04;9.40;1.00
25512;DHT22;13414;44.534;18.700;2024-02-28T00:05:32;9.30;99.90
25512;DHT22;13414;44.534;18.700;2024-02-28T00:07:59;9.30;99.90
25512;DHT22;13414;44.534;18.700;2024-02-28T00:10:27;9.30;1.00
25512;DHT22;13414;44.534;18.700;2024-02-28T00:12:56;9.20;1.00
25512;DHT22;13414;44.534;18.700;2024-02-28T00:15:24;9.10;99.90
25512;DHT22;13414;44.534;18.700;2024-02-28T00:17:52;9.10;99.90
25512;DHT22;13414;44.534;18.700;2024-02-28T00:20:19;9.10;99.90
25512;DHT22;13414;44.534;18.700;2024-02-28T00:22:47;9.10;1.00
25512;DHT22;13414;44.534;18.700;2024-02-28T00:25:14;9.10;1.00
25512;DHT22;13414;44.534;18.700;2024-02-28T00:27:43;9.10;1.00
25512;DHT22;13414;44.534;18.700;2024-02-28T00:30:13;9.10;1.00
25512;DHT22;13414;44.534;18.700;2024-02-28T00:32:41;9.00;99.90
25512;DHT22;13414;44.534;18.700;2024-02-28T00:35:09;9.00;1.00
25512;DHT22;13414;44.534;18.700;2024-02-28T00:37:36;9.10;1.00
25512;DHT22;13414;44.534;18.700;2024-02-28T00:40:04;9.10;99.90
25512;DHT22;13414;44.534;18.700;2024-02-28T00:42:32;9.10;1.00
25512;DHT22;13414;44.534;18.700;2024-02-28T00:44:59;9.10;1.00
25512;DHT22;13414;44.534;18.700;2024-02-28T00:47:31;9.10;41.90
25512;DHT22;13414;44.534;18.700;2024-02-28T00:49:58;9.00;99.90
25512;DHT22;13414;44.534;18.700;2024-02-28T00:52:25;8.90;99.90
25512;DHT22;13414;44.534;18.700;2024-02-28T00:54:53;8.90;1.00
25512;DHT22;13414;44.534;18.700;2024-02-28T00:57:20;8.90;99.90
25512;DHT22;13414;44.534;18.700;2024-02-28T00:59:48;8.90;1.00
25512;DHT22;13414;44.534;18.700;2024-02-28T01:02:16;8.80;99.90
25512;DHT22;13414;44.534;18.700;2024-02-28T01:04:44;8.60;99.90
25512;DHT22;13414;44.534;18.700;2024-02-28T01:07:12;8.60;99.90
25512;DHT22;13414;44.534;18.700;2024-02-28T01:09:39;8.50;1.00
25512;DHT22;13414;44.534;18.700;2024-02-28T01:12:07;8.60;1.00
25512;DHT22;13414;44.534;18.700;2024-02-28T01:14:35;8.60;1.00
25512;DHT22;13414;44.534;18.700;2024-02-28T01:17:02;8.60;99.90
25512;DHT22;13414;44.534;18.700;2024-02-28T01:19:30;8.50;1.00
25512;DHT22;13414;44.534;18.700;2024-02-28T01:21:59;8.40;99.90
25512;DHT22;13414;44.534;18.700;2024-02-28T01:24:26;8.40;1.00
25512;DHT22;13414;44.534;18.700;2024-02-28T01:26:54;8.40;1.00
25512;DHT22;13414;44.534;18.700;2024-02-28T01:29:21;8.40;1.00
25512;DHT22;13414;44.534;18.700;2024-02-28T01:31:49;8.40;1.00
25512;DHT22;13414;44.534;18.700;2024-02-28T01:34:17;8.40;1.00
25512;DHT22;13414;44.534;18.700;2024-02-28T01:36:46;8.40;1.00
25512;DHT22;13414;44.534;18.700;2024-02-28T01:39:15;8.50;1.00
25512;DHT22;13414;44.534;18.700;2024-02-28T01:41:51;8.40;1.00
25512;DHT22;13414;44.534;18.700;2024-02-28T01:44:20;8.40;99.90
25512;DHT22;13414;44.534;18.700;2024-02-28T01:46:48;8.30;1.00
25512;DHT22;13414;44.534;18.700;2024-02-28T01:49:16;8.30;1.00
25512;DHT22;13414;44.534;18.700;2024-02-28T01:51:44;8.30;1.30
25512;DHT22;13414;44.534;18.700;2024-02-28T01:54:12;8.30;99.90
25512;DHT22;13414;44.534;18.700;2024-02-28T01:56:42;8.20;1.00
25512;DHT22;13414;44.534;18.700;2024-02-28T01:59:10;8.20;99.90
25512;DHT22;13414;44.534;18.700;2024-02-28T02:01:38;8.20;99.90
25512;DHT22;13414;44.534;18.700;2024-02-28T02:04:06;8.10;99.90
25512;DHT22;13414;44.534;18.700;2024-02-28T02:06:38;8.20;1.00
25512;DHT22;13414;44.534;18.700;2024-02-28T02:09:09;8.20;99.90
25512;DHT22;13414;44.534;18.700;2024-02-28T02:11:37;8.20;99.90
25512;DHT22;13414;44.534;18.700;2024-02-28T02:14:07;8.20;84.50
25512;DHT22;13414;44.534;18.700;2024-02-28T02:16:34;8.20;1.00
25512;DHT22;13414;44.534;18.700;2024-02-28T02:19:02;8.20;1.00
25512;DHT22;13414;44.534;18.700;2024-02-28T02:21:31;8.00;99.90
25512;DHT22;13414;44.534;18.700;2024-02-28T02:24:03;8.00;1.00
25512;DHT22;13414;44.534;18.700;2024-02-28T02:26:31;8.00;99.90
25512;DHT22;13414;44.534;18.700;2024-02-28T02:29:01;7.90;1.00
25512;DHT22;13414;44.534;18.700;2024-02-28T02:31:28;8.00;20.80
25512;DHT22;13414;44.534;18.700;2024-02-28T02:33:57;7.90;1.00
25512;DHT22;13414;44.534;18.700;2024-02-28T02:36:25;7.80;99.90
25512;DHT22;13414;44.534;18.700;2024-02-28T02:38:53;7.80;1.00
25512;DHT22;13414;44.534;18.700;2024-02-28T02:41:22;7.80;99.90
25512;DHT22;13414;44.534;18.700;2024-02-28T02:43:49;7.90;99.90
25512;DHT22;13414;44.534;18.700;2024-02-28T02:46:17;7.90;34.00
25512;DHT22;13414;44.534;18.700;2024-02-28T02:48:45;7.90;57.40
25512;DHT22;13414;44.534;18.700;2024-02-28T02:51:12;8.00;1.00
25512;DHT22;13414;44.534;18.700;2024-02-28T02:53:40;8.10;99.90
25512;DHT22;13414;44.534;18.700;2024-02-28T02:56:08;8.00;1.00
25512;DHT22;13414;44.534;18.700;2024-02-28T02:58:37;8.00;1.00
25512;DHT22;13414;44.534;18.700;2024-02-28T03:01:04;8.10;1.00
25512;DHT22;13414;44.534;18.700;2024-02-28T03:03:32;8.10;1.00
25512;DHT22;13414;44.534;18.700;2024-02-28T03:05:59;8.10;1.00
25512;DHT22;13414;44.534;18.700;2024-02-28T03:08:27;8.10;1.00
25512;DHT22;13414;44.534;18.700;2024-02-28T03:10:55;8.10;1.00
25512;DHT22;13414;44.534;18.700;2024-02-28T03:13:23;8.10;99.90
25512;DHT22;13414;44.534;18.700;2024-02-28T03:15:52;8.00;99.90
25512;DHT22;13414;44.534;18.700;2024-02-28T03:18:19;8.00;99.90
25512;DHT22;13414;44.534;18.700;2024-02-28T03:20:47;8.00;1.00
25512;DHT22;13414;44.534;18.700;2024-02-28T03:23:16;7.90;99.90
25512;DHT22;13414;44.534;18.700;2024-02-28T03:25:43;7.90;1.00
25512;DHT22;13414;44.534;18.700;2024-02-28T03:28:11;7.90;99.90
25512;DHT22;13414;44.534;18.700;2024-02-28T03:30:39;7.80;99.90
25512;DHT22;13414;44.534;18.700;2024-02-28T03:33:08;7.70;1.00
25512;DHT22;13414;44.534;18.700;2024-02-28T03:35:35;7.70;99.90
25512;DHT22;13414;44.534;18.700;2024-02-28T03:38:03;7.70;1.00
25512;DHT22;13414;44.534;18.700;2024-02-28T03:40:31;7.60;1.00
25512;DHT22;13414;44.534;18.700;2024-02-28T03:43:00;7.60;1.00
25512;DHT22;13414;44.534;18.700;2024-02-28T03:45:29;7.70;1.00
25512;DHT22;13414;44.534;18.700;2024-02-28T03:47:56;7.60;1.00
25512;DHT22;13414;44.534;18.700;2024-02-28T03:50:25;7.70;1.00
25512;DHT22;13414;44.534;18.700;2024-02-28T03:52:53;7.50;99.90
25512;DHT22;13414;44.534;18.700;2024-02-28T03:55:21;7.50;14.40
25512;DHT22;13414;44.534;18.700;2024-02-28T03:57:48;7.50;99.90
25512;DHT22;13414;44.534;18.700;2024-02-28T04:00:18;7.50;1.00
25512;DHT22;13414;44.534;18.700;2024-02-28T04:02:46;7.50;99.90
25512;DHT22;13414;44.534;18.700;2024-02-28T04:05:14;7.40;99.90
25512;DHT22;13414;44.534;18.700;2024-02-28T04:07:45;7.40;1.00
25512;DHT22;13414;44.534;18.700;2024-02-28T04:10:11;7.40;1.00
25512;DHT22;13414;44.534;18.700;2024-02-28T04:12:39;7.30;1.00
25512;DHT22;13414;44.534;18.700;2024-02-28T04:15:07;7.30;1.00
25512;DHT22;13414;44.534;18.700;2024-02-28T04:17:34;7.20;1.00
25512;DHT22;13414;44.534;18.700;2024-02-28T04:20:02;7.30;1.00
25512;DHT22;13414;44.534;18.700;2024-02-28T04:22:33;7.30;1.00
25512;DHT22;13414;44.534;18.700;2024-02-28T04:25:03;7.30;1.00
25512;DHT22;13414;44.534;18.700;2024-02-28T04:27:31;7.30;1.00
25512;DHT22;13414;44.534;18.700;2024-02-28T04:29:59;7.30;1.00
25512;DHT22;13414;44.534;18.700;2024-02-28T04:32:29;7.30;99.90
25512;DHT22;13414;44.534;18.700;2024-02-28T04:34:57;7.30;99.90
25512;DHT22;13414;44.534;18.700;2024-02-28T04:37:24;7.30;1.00
25512;DHT22;13414;44.534;18.700;2024-02-28T04:39:52;7.30;1.00
25512;DHT22;13414;44.534;18.700;2024-02-28T04:42:21;7.30;99.90
25512;DHT22;13414;44.534;18.700;2024-02-28T04:44:55;7.30;99.90
25512;DHT22;13414;44.534;18.700;2024-02-28T04:47:22;7.20;99.90
25512;DHT22;13414;44.534;18.700;2024-02-28T04:50:01;7.20;1.00
25512;DHT22;13414;44.534;18.700;2024-02-28T04:52:33;7.20;1.00
25512;DHT22;13414;44.534;18.700;2024-02-28T04:55:03;7.20;1.00
25512;DHT22;13414;44.534;18.700;2024-02-28T04:57:41;7.20;1.00
25512;DHT22;13414;44.534;18.700;2024-02-28T05:00:09;7.20;99.90
25512;DHT22;13414;44.534;18.700;2024-02-28T05:02:43;7.10;1.00
25512;DHT22;13414;44.534;18.700;2024-02-28T05:05:13;7.10;1.00
25512;DHT22;13414;44.534;18.700;2024-02-28T05:07:59;7.10;1.00
25512;DHT22;13414;44.534;18.700;2024-02-28T05:10:28;7.10;1.00
25512;DHT22;13414;44.534;18.700;2024-02-28T05:12:57;7.10;1.00
25512;DHT22;13414;44.534;18.700;2024-02-28T05:15:32;7.00;99.90
25512;DHT22;13414;44.534;18.700;2024-02-28T05:18:02;7.00;1.00
25512;DHT22;13414;44.534;18.700;2024-02-28T05:20:31;6.90;1.00
25512;DHT22;13414;44.534;18.700;2024-02-28T05:23:03;6.90;1.00
25512;DHT22;13414;44.534;18.700;2024-02-28T05:25:32;6.90;1.00
25512;DHT22;13414;44.534;18.700;2024-02-28T05:28:04;6.90;7.70
25512;DHT22;13414;44.534;18.700;2024-02-28T05:30:49;7.00;6.70
25512;DHT22;13414;44.534;18.700;2024-02-28T05:33:21;7.00;1.00
25512;DHT22;13414;44.534;18.700;2024-02-28T05:35:49;7.00;1.00
25512;DHT22;13414;44.534;18.700;2024-02-28T05:38:18;7.10;1.00
25512;DHT22;13414;44.534;18.700;2024-02-28T05:40:46;7.10;99.90
25512;DHT22;13414;44.534;18.700;2024-02-28T05:43:15;7.20;99.90
25512;DHT22;13414;44.534;18.700;2024-02-28T05:45:43;7.20;1.00
25512;DHT22;13414;44.534;18.700;2024-02-28T05:48:13;7.10;1.00
25512;DHT22;13414;44.534;18.700;2024-02-28T05:51:01;7.10;1.00
25512;DHT22;13414;44.534;18.700;2024-02-28T05:53:32;7.10;99.90
25512;DHT22;13414;44.534;18.700;2024-02-28T05:56:02;7.10;99.90
25512;DHT22;13414;44.534;18.700;2024-02-28T05:58:34;7.10;1.00
25512;DHT22;13414;44.534;18.700;2024-02-28T06:01:02;7.10;1.00
25512;DHT22;13414;44.534;18.700;2024-02-28T06:03:31;7.30;1.00
25512;DHT22;13414;44.534;18.700;2024-02-28T06:06:04;7.30;99.90
25512;DHT22;13414;44.534;18.700;2024-02-28T06:08:38;7.40;1.00
25512;DHT22;13414;44.534;18.700;2024-02-28T06:11:07;7.40;1.00
25512;DHT22;13414;44.534;18.700;2024-02-28T06:13:39;7.50;1.00
25512;DHT22;13414;44.534;18.700;2024-02-28T06:16:14;7.60;1.00
25512;DHT22;13414;44.534;18.700;2024-02-28T06:18:47;7.60;1.00
25512;DHT22;13414;44.534;18.700;2024-02-28T06:21:16;7.70;20.00
25512;DHT22;13414;44.534;18.700;2024-02-28T06:23:49;7.70;1.00
25512;DHT22;13414;44.534;18.700;2024-02-28T06:26:18;7.80;99.90
25512;DHT22;13414;44.534;18.700;2024-02-28T06:28:52;7.80;50.60
25512;DHT22;13414;44.534;18.700;2024-02-28T06:31:20;7.70;1.00
25512;DHT22;13414;44.534;18.700;2024-02-28T06:33:59;7.70;1.00
25512;DHT22;13414;44.534;18.700;2024-02-28T06:36:44;7.60;99.90
25512;DHT22;13414;44.534;18.700;2024-02-28T06:39:15;7.70;15.70
25512;DHT22;13414;44.534;18.700;2024-02-28T06:41:54;7.80;99.90
25512;DHT22;13414;44.534;18.700;2024-02-28T06:44:23;7.90;99.90
25512;DHT22;13414;44.534;18.700;2024-02-28T06:46:50;7.90;1.00
25512;DHT22;13414;44.534;18.700;2024-02-28T06:49:18;8.00;99.90
25512;DHT22;13414;44.534;18.700;2024-02-28T06:51:52;8.00;99.90
25512;DHT22;13414;44.534;18.700;2024-02-28T06:54:20;8.00;99.90
25512;DHT22;13414;44.534;18.700;2024-02-28T06:56:48;8.10;99.90
25512;DHT22;13414;44.534;18.700;2024-02-28T06:59:16;8.20;1.00
25512;DHT22;13414;44.534;18.700;2024-02-28T07:01:45;8.40;99.90
25512;DHT22;13414;44.534;18.700;2024-02-28T07:04:13;8.40;99.90
25512;DHT22;13414;44.534;18.700;2024-02-28T07:06:44;8.50;99.90
25512;DHT22;13414;44.534;18.700;2024-02-28T07:09:12;8.50;99.90
25512;DHT22;13414;44.534;18.700;2024-02-28T07:11:41;8.60;1.00
25512;DHT22;13414;44.534;18.700;2024-02-28T07:14:10;8.60;99.90
25512;DHT22;13414;44.534;18.700;2024-02-28T07:16:38;8.80;99.90
25512;DHT22;13414;44.534;18.700;2024-02-28T07:19:09;8.90;1.00
25512;DHT22;13414;44.534;18.700;2024-02-28T07:21:37;9.10;1.00
25512;DHT22;13414;44.534;18.700;2024-02-28T07:24:04;9.30;1.00
25512;DHT22;13414;44.534;18.700;2024-02-28T07:26:32;9.50;99.90
25512;DHT22;13414;44.534;18.700;2024-02-28T07:28:59;9.60;1.00
25512;DHT22;13414;44.534;18.700;2024-02-28T07:31:27;9.70;99.90
25512;DHT22;13414;44.534;18.700;2024-02-28T07:33:55;9.80;1.00
25512;DHT22;13414;44.534;18.700;2024-02-28T07:36:24;9.80;1.00
25512;DHT22;13414;44.534;18.700;2024-02-28T07:38:51;9.80;74.00
25512;DHT22;13414;44.534;18.700;2024-02-28T07:41:19;9.90;1.00
25512;DHT22;13414;44.534;18.700;2024-02-28T07:43:47;10.00;1.00
25512;DHT22;13414;44.534;18.700;2024-02-28T07:46:15;10.00;1.00
25512;DHT22;13414;44.534;18.700;2024-02-28T07:48:43;10.20;99.90
25512;DHT22;13414;44.534;18.700;2024-02-28T07:51:12;10.40;24.60
25512;DHT22;13414;44.534;18.700;2024-02-28T07:53:42;10.40;1.00
25512;DHT22;13414;44.534;18.700;2024-02-28T07:56:15;10.30;1.00
25512;DHT22;13414;44.534;18.700;2024-02-28T07:58:44;10.40;1.00
25512;DHT22;13414;44.534;18.700;2024-02-28T08:01:12;10.60;1.00
25512;DHT22;13414;44.534;18.700;2024-02-28T08:03:40;10.90;1.00
25512;DHT22;13414;44.534;18.700;2024-02-28T08:06:08;11.10;1.00
25512;DHT22;13414;44.534;18.700;2024-02-28T08:08:36;11.50;99.90
25512;DHT22;13414;44.534;18.700;2024-02-28T08:11:05;11.90;1.00
25512;DHT22;13414;44.534;18.700;2024-02-28T08:13:32;12.40;1.00
25512;DHT22;13414;44.534;18.700;2024-02-28T08:16:00;12.70;99.90
25512;DHT22;13414;44.534;18.700;2024-02-28T08:18:28;13.00;99.90
25512;DHT22;13414;44.534;18.700;2024-02-28T08:20:56;13.20;99.90
25512;DHT22;13414;44.534;18.700;2024-02-28T08:23:25;13.60;46.60
25512;DHT22;13414;44.534;18.700;2024-02-28T08:25:54;14.10;1.00
25512;DHT22;13414;44.534;18.700;2024-02-28T08:28:23;14.40;1.00
25512;DHT22;13414;44.534;18.700;2024-02-28T08:30:51;14.80;1.00
25512;DHT22;13414;44.534;18.700;2024-02-28T08:33:18;15.20;1.00
25512;DHT22;13414;44.534;18.700;2024-02-28T08:35:46;15.40;1.00
25512;DHT22;13414;44.534;18.700;2024-02-28T08:38:16;15.60;1.00
25512;DHT22;13414;44.534;18.700;2024-02-28T08:40:43;15.60;1.00
25512;DHT22;13414;44.534;18.700;2024-02-28T08:43:11;15.70;1.00
25512;DHT22;13414;44.534;18.700;2024-02-28T08:45:40;15.60;1.00
25512;DHT22;13414;44.534;18.700;2024-02-28T08:48:09;15.40;1.00
25512;DHT22;13414;44.534;18.700;2024-02-28T08:50:36;15.50;1.00
25512;DHT22;13414;44.534;18.700;2024-02-28T08:53:04;15.60;1.00
25512;DHT22;13414;44.534;18.700;2024-02-28T08:55:33;15.60;1.00
25512;DHT22;13414;44.534;18.700;2024-02-28T08:58:00;15.80;1.00
25512;DHT22;13414;44.534;18.700;2024-02-28T09:00:27;15.90;1.00
25512;DHT22;13414;44.534;18.700;2024-02-28T09:02:56;16.10;1.00
25512;DHT22;13414;44.534;18.700;2024-02-28T09:05:24;16.30;1.00
25512;DHT22;13414;44.534;18.700;2024-02-28T09:07:51;16.30;1.00
25512;DHT22;13414;44.534;18.700;2024-02-28T09:10:21;16.50;1.00
25512;DHT22;13414;44.534;18.700;2024-02-28T09:12:50;16.60;1.00
25512;DHT22;13414;44.534;18.700;2024-02-28T09:15:18;16.70;1.00
25512;DHT22;13414;44.534;18.700;2024-02-28T09:17:45;16.70;1.00
25512;DHT22;13414;44.534;18.700;2024-02-28T09:20:14;16.70;1.00
25512;DHT22;13414;44.534;18.700;2024-02-28T09:22:43;16.80;1.00
25512;DHT22;13414;44.534;18.700;2024-02-28T09:25:10;16.90;1.00
25512;DHT22;13414;44.534;18.700;2024-02-28T09:27:38;17.00;1.00
25512;DHT22;13414;44.534;18.700;2024-02-28T09:30:06;17.10;1.00
25512;DHT22;13414;44.534;18.700;2024-02-28T09:32:37;17.20;1.00
25512;DHT22;13414;44.534;18.700;2024-02-28T09:35:05;17.30;1.00
25512;DHT22;13414;44.534;18.700;2024-02-28T09:37:34;17.40;1.00
25512;DHT22;13414;44.534;18.700;2024-02-28T09:40:04;17.50;1.00
25512;DHT22;13414;44.534;18.700;2024-02-28T09:42:32;17.60;1.00
25512;DHT22;13414;44.534;18.700;2024-02-28T09:45:00;17.70;1.00
25512;DHT22;13414;44.534;18.700;2024-02-28T09:47:28;17.90;1.00
25512;DHT22;13414;44.534;18.700;2024-02-28T09:49:57;18.00;1.00
25512;DHT22;13414;44.534;18.700;2024-02-28T09:52:25;18.10;1.00
25512;DHT22;13414;44.534;18.700;2024-02-28T09:54:55;18.20;1.00
25512;DHT22;13414;44.534;18.700;2024-02-28T09:57:23;18.30;1.00
25512;DHT22;13414;44.534;18.700;2024-02-28T09:59:55;18.40;1.00
25512;DHT22;13414;44.534;18.700;2024-02-28T10:02:27;18.50;1.00
25512;DHT22;13414;44.534;18.700;2024-02-28T10:04:56;18.60;1.00
25512;DHT22;13414;44.534;18.700;2024-02-28T10:07:24;18.70;1.00
25512;DHT22;13414;44.534;18.700;2024-02-28T10:09:53;18.80;1.00
25512;DHT22;13414;44.534;18.700;2024-02-28T10:12:21;18.80;1.00
25512;DHT22;13414;44.534;18.700;2024-02-28T10:14:50;18.80;1.00
25512;DHT22;13414;44.534;18.700;2024-02-28T10:17:17;18.70;1.00
25512;DHT22;13414;44.534;18.700;2024-02-28T10:19:45;18.70;1.00
25512;DHT22;13414;44.534;18.700;2024-02-28T10:22:13;18.90;1.00
25512;DHT22;13414;44.534;18.700;2024-02-28T10:24:41;19.00;1.00
25512;DHT22;13414;44.534;18.700;2024-02-28T10:27:09;19.10;1.00
25512;DHT22;13414;44.534;18.700;2024-02-28T10:29:37;19.20;1.00
25512;DHT22;13414;44.534;18.700;2024-02-28T10:32:05;19.30;1.00
25512;DHT22;13414;44.534;18.700;2024-02-28T10:34:33;19.30;1.00
25512;DHT22;13414;44.534;18.700;2024-02-28T10:37:01;19.30;1.00
25512;DHT22;13414;44.534;18.700;2024-02-28T10:39:31;19.30;1.00
25512;DHT22;13414;44.534;18.700;2024-02-28T10:42:00;19.30;1.00
25512;DHT22;13414;44.534;18.700;2024-02-28T10:44:30;19.20;1.00
25512;DHT22;13414;44.534;18.700;2024-02-28T10:47:00;19.10;1.00
25512;DHT22;13414;44.534;18.700;2024-02-28T10:49:28;19.20;1.00
25512;DHT22;13414;44.534;18.700;2024-02-28T10:51:59;19.10;1.00
25512;DHT22;13414;44.534;18.700;2024-02-28T10:54:31;19.20;1.00
25512;DHT22;13414;44.534;18.700;2024-02-28T10:57:00;19.30;1.00
25512;DHT22;13414;44.534;18.700;2024-02-28T10:59:30;19.30;1.00
25512;DHT22;13414;44.534;18.700;2024-02-28T11:02:01;19.40;1.00
25512;DHT22;13414;44.534;18.700;2024-02-28T11:04:29;19.40;1.00
25512;DHT22;13414;44.534;18.700;2024-02-28T11:06:57;19.50;1.00
25512;DHT22;13414;44.534;18.700;2024-02-28T11:09:28;19.50;1.00
25512;DHT22;13414;44.534;18.700;2024-02-28T11:11:57;19.60;1.00
25512;DHT22;13414;44.534;18.700;2024-02-28T11:14:25;19.70;1.00
25512;DHT22;13414;44.534;18.700;2024-02-28T11:17:02;20.00;1.00
25512;DHT22;13414;44.534;18.700;2024-02-28T11:19:31;20.20;1.00
25512;DHT22;13414;44.534;18.700;2024-02-28T11:21:59;20.30;1.00
25512;DHT22;13414;44.534;18.700;2024-02-28T11:24:31;20.50;1.00
25512;DHT22;13414;44.534;18.700;2024-02-28T11:26:59;20.70;1.00
25512;DHT22;13414;44.534;18.700;2024-02-28T11:29:29;20.70;1.00
25512;DHT22;13414;44.534;18.700;2024-02-28T11:31:57;20.80;1.00
25512;DHT22;13414;44.534;18.700;2024-02-28T11:34:25;20.70;1.00
25512;DHT22;13414;44.534;18.700;2024-02-28T11:36:53;20.90;1.00
25512;DHT22;13414;44.534;18.700;2024-02-28T11:39:22;21.10;1.00
25512;DHT22;13414;44.534;18.700;2024-02-28T11:41:51;21.10;1.00
25512;DHT22;13414;44.534;18.700;2024-02-28T11:44:19;21.30;1.00
25512;DHT22;13414;44.534;18.700;2024-02-28T11:46:47;21.20;1.00
25512;DHT22;13414;44.534;18.700;2024-02-28T11:49:15;21.60;1.00
25512;DHT22;13414;44.534;18.700;2024-02-28T11:51:45;21.70;1.00
25512;DHT22;13414;44.534;18.700;2024-02-28T11:54:13;21.70;1.00
25512;DHT22;13414;44.534;18.700;2024-02-28T11:56:40;21.50;1.00
25512;DHT22;13414;44.534;18.700;2024-02-28T11:59:08;21.60;1.00
25512;DHT22;13414;44.534;18.700;2024-02-28T12:01:41;21.70;1.00
25512;DHT22;13414;44.534;18.700;2024-02-28T12:04:09;21.80;1.00
25512;DHT22;13414;44.534;18.700;2024-02-28T12:06:38;21.90;1.00
25512;DHT22;13414;44.534;18.700;2024-02-28T12:09:08;21.70;1.00
25512;DHT22;13414;44.534;18.700;2024-02-28T12:11:37;21.40;1.00
25512;DHT22;13414;44.534;18.700;2024-02-28T12:14:05;21.40;1.00
25512;DHT22;13414;44.534;18.700;2024-02-28T12:16:36;21.40;1.00
25512;DHT22;13414;44.534;18.700;2024-02-28T12:19:06;21.40;1.00
25512;DHT22;13414;44.534;18.700;2024-02-28T12:21:39;21.30;1.00
25512;DHT22;13414;44.534;18.700;2024-02-28T12:24:12;21.20;1.00
25512;DHT22;13414;44.534;18.700;2024-02-28T12:26:40;21.10;1.00
25512;DHT22;13414;44.534;18.700;2024-02-28T12:29:08;21.10;1.00
25512;DHT22;13414;44.534;18.700;2024-02-28T12:31:36;20.90;1.00
25512;DHT22;13414;44.534;18.700;2024-02-28T12:34:04;20.60;1.00
25512;DHT22;13414;44.534;18.700;2024-02-28T12:36:31;20.50;1.00
25512;DHT22;13414;44.534;18.700;2024-02-28T12:39:00;20.70;1.00
25512;DHT22;13414;44.534;18.700;2024-02-28T12:41:29;20.60;1.00
25512;DHT22;13414;44.534;18.700;2024-02-28T12:44:15;20.60;1.00
25512;DHT22;13414;44.534;18.700;2024-02-28T12:49:47;20.10;1.00
25512;DHT22;13414;44.534;18.700;2024-02-28T12:52:14;19.80;1.00
25512;DHT22;13414;44.534;18.700;2024-02-28T12:54:43;19.60;1.00
25512;DHT22;13414;44.534;18.700;2024-02-28T12:57:12;19.40;1.00
25512;DHT22;13414;44.534;18.700;2024-02-28T12:59:42;19.40;1.00
25512;DHT22;13414;44.534;18.700;2024-02-28T13:02:10;19.40;1.00
25512;DHT22;13414;44.534;18.700;2024-02-28T13:04:37;19.10;1.00
25512;DHT22;13414;44.534;18.700;2024-02-28T13:07:05;19.00;1.00
25512;DHT22;13414;44.534;18.700;2024-02-28T13:09:33;18.90;1.00
25512;DHT22;13414;44.534;18.700;2024-02-28T13:12:00;18.90;1.00
25512;DHT22;13414;44.534;18.700;2024-02-28T13:14:29;18.80;1.00
25512;DHT22;13414;44.534;18.700;2024-02-28T13:16:58;18.70;1.00
25512;DHT22;13414;44.534;18.700;2024-02-28T13:19:26;18.70;1.00
25512;DHT22;13414;44.534;18.700;2024-02-28T13:21:53;18.80;1.00
25512;DHT22;13414;44.534;18.700;2024-02-28T13:24:21;18.80;1.00
25512;DHT22;13414;44.534;18.700;2024-02-28T13:26:48;18.80;1.00
25512;DHT22;13414;44.534;18.700;2024-02-28T13:29:15;18.70;1.00
25512;DHT22;13414;44.534;18.700;2024-02-28T13:31:44;18.50;1.00
25512;DHT22;13414;44.534;18.700;2024-02-28T13:34:12;18.60;1.00
25512;DHT22;13414;44.534;18.700;2024-02-28T13:36:39;18.40;1.00
25512;DHT22;13414;44.534;18.700;2024-02-28T13:39:09;18.50;1.00
25512;DHT22;13414;44.534;18.700;2024-02-28T13:41:39;18.60;1.00
25512;DHT22;13414;44.534;18.700;2024-02-28T13:44:08;18.40;1.00
25512;DHT22;13414;44.534;18.700;2024-02-28T13:46:36;18.30;1.00
25512;DHT22;13414;44.534;18.700;2024-02-28T13:49:07;18.40;1.00
25512;DHT22;13414;44.534;18.700;2024-02-28T13:51:34;18.40;1.00
25512;DHT22;13414;44.534;18.700;2024-02-28T13:54:02;18.40;1.00
25512;DHT22;13414;44.534;18.700;2024-02-28T13:56:32;18.40;1.00
25512;DHT22;13414;44.534;18.700;2024-02-28T13:59:08;18.40;1.00
25512;DHT22;13414;44.534;18.700;2024-02-28T14:01:36;18.50;1.00
25512;DHT22;13414;44.534;18.700;2024-02-28T14:04:04;18.50;1.00
25512;DHT22;13414;44.534;18.700;2024-02-28T14:06:32;18.50;1.00
25512;DHT22;13414;44.534;18.700;2024-02-28T14:09:00;18.40;1.00
25512;DHT22;13414;44.534;18.700;2024-02-28T14:11:28;18.30;1.00
25512;DHT22;13414;44.534;18.700;2024-02-28T14:13:57;18.40;1.00
25512;DHT22;13414;44.534;18.700;2024-02-28T14:16:24;18.30;1.00
25512;DHT22;13414;44.534;18.700;2024-02-28T14:18:52;18.40;1.00
25512;DHT22;13414;44.534;18.700;2024-02-28T14:21:20;18.50;1.00
25512;DHT22;13414;44.534;18.700;2024-02-28T14:23:50;18.40;1.00
25512;DHT22;13414;44.534;18.700;2024-02-28T14:26:18;18.40;1.00
25512;DHT22;13414;44.534;18.700;2024-02-28T14:28:45;18.40;1.00
25512;DHT22;13414;44.534;18.700;2024-02-28T14:31:13;18.40;1.00
25512;DHT22;13414;44.534;18.700;2024-02-28T14:33:40;18.30;1.00
25512;DHT22;13414;44.534;18.700;2024-02-28T14:36:08;18.20;1.00
25512;DHT22;13414;44.534;18.700;2024-02-28T14:38:36;18.10;1.00
25512;DHT22;13414;44.534;18.700;2024-02-28T14:41:05;18.10;1.00
25512;DHT22;13414;44.534;18.700;2024-02-28T14:43:33;18.20;1.00
25512;DHT22;13414;44.534;18.700;2024-02-28T14:46:00;18.20;1.00
25512;DHT22;13414;44.534;18.700;2024-02-28T14:48:28;18.20;1.00
25512;DHT22;13414;44.534;18.700;2024-02-28T14:50:55;18.30;1.00
25512;DHT22;13414;44.534;18.700;2024-02-28T14:53:22;18.10;1.00
25512;DHT22;13414;44.534;18.700;2024-02-28T14:55:50;18.00;1.00
25512;DHT22;13414;44.534;18.700;2024-02-28T14:58:19;18.00;1.00
25512;DHT22;13414;44.534;18.700;2024-02-28T15:00:46;18.00;1.00
25512;DHT22;13414;44.534;18.700;2024-02-28T15:03:15;17.80;1.00
25512;DHT22;13414;44.534;18.700;2024-02-28T15:05:43;17.80;1.00
25512;DHT22;13414;44.534;18.700;2024-02-28T15:08:11;17.80;1.00
25512;DHT22;13414;44.534;18.700;2024-02-28T15:10:38;17.90;1.00
25512;DHT22;13414;44.534;18.700;2024-02-28T15:13:07;17.80;1.00
25512;DHT22;13414;44.534;18.700;2024-02-28T15:15:35;17.70;1.00
25512;DHT22;13414;44.534;18.700;2024-02-28T15:18:03;17.80;1.00
25512;DHT22;13414;44.534;18.700;2024-02-28T15:20:31;17.70;1.00
25512;DHT22;13414;44.534;18.700;2024-02-28T15:22:58;17.70;1.00
25512;DHT22;13414;44.534;18.700;2024-02-28T15:25:26;17.70;1.00
25512;DHT22;13414;44.534;18.700;2024-02-28T15:27:54;17.70;1.00
25512;DHT22;13414;44.534;18.700;2024-02-28T15:30:21;17.60;1.00
25512;DHT22;13414;44.534;18.700;2024-02-28T15:33:07;17.50;1.00
25512;DHT22;13414;44.534;18.700;2024-02-28T15:35:35;17.40;1.00
25512;DHT22;13414;44.534;18.700;2024-02-28T15:38:02;17.40;1.00
25512;DHT22;13414;44.534;18.700;2024-02-28T15:40:30;17.30;1.00
25512;DHT22;13414;44.534;18.700;2024-02-28T15:42:57;17.30;1.00
25512;DHT22;13414;44.534;18.700;2024-02-28T15:45:24;17.30;1.00
25512;DHT22;13414;44.534;18.700;2024-02-28T15:47:52;17.20;1.00